Stockton, New Jersey
Current Conditions -  °F | °C
As of 2:54 PM on Monday 24 Nov 2014 (Local Time) from KDYL Reporting Station
Scattered Clouds Scattered Clouds  
Wind Chill: 66°   Ceiling: Unl
Heat Index: 66°   Visibility: 10mi
Dew Point: 55°   Wind: 16mph
Humidity: 68%   Direction: 200°SSW
Pressure: 29.58"   Gusts: 26mph
Location:  40.41°N, 74.98°W
Report Text: KDYL 241954Z AUTO 20014G23KT 10SM SCT034 19/13 A2958 RMK AO2 PK WND 21027/1913 SLP017 T01890128
Loading
Personal Weather Stations






























Interactive Weather Map New forecast layout! Learn more

10-Day Weather Forecast

Advertisements
Track Severe Weather on mobile